Formosacontainer No4 — A8LI8 — position and weather

sailwx.info

Track history (hours):
 
Tides and Currents Weather Stations Pressure Air Temp Water Temp Dewpoint Dewpoint Depression Visibility Wind Speed Wind Dir Waves Ship Positions

Formosacontainer No4

Last reported at 2017-Dec-15 23:00 UTC. Time now 2017-Dec-15 23:28 UTC.
Position N 33°14' E 132°04'.

Length 138 m; draft 7.5 m.

Type: Ship (hazmat cat A). MMSI: 636013205.

Date/timePositionNaut miles runAvg speedWind from/ knotsBaromVisibWave heightAir tempDewpointWater temp
2017-Dec-15 23:00N 33°14' E 132°04'29314.1
2017-Dec-15 02:13N 34°16' E 137°49'1915.5
2017-Dec-15 01:00N 34°25' E 138°09'815.4
2017-Dec-15 00:28N 34°29' E 138°17'35 5.8
2017-Dec-14 18:31N 35°02' E 138°30'0 0.0
2017-Dec-14 18:00N 35°02' E 138°30'0 0.0
2017-Dec-14 17:30N 35°02' E 138°30'0 0.0
2017-Dec-14 17:00N 35°02' E 138°30'0 0.0
2017-Dec-14 16:30N 35°02' E 138°30'0 0.0
2017-Dec-14 16:01N 35°02' E 138°30'2 1.8
2017-Dec-14 15:01N 35°02' E 138°33'713.4
2017-Dec-14 14:30N 34°55' E 138°35'816.4
2017-Dec-14 14:00N 34°48' E 138°38'917.0
2017-Dec-14 13:30N 34°39' E 138°42'815.7
2017-Dec-14 13:00N 34°35' E 138°50'713.6
2017-Dec-14 12:30N 34°33' E 138°58'815.4
2017-Dec-14 12:00N 34°38' E 139°04'815.2
2017-Dec-14 11:29N 34°44' E 139°12'714.2
2017-Dec-14 11:00N 34°48' E 139°18'714.5
2017-Dec-14 10:30N 34°53' E 139°24'815.6
2017-Dec-14 10:00N 34°58' E 139°31'815.3
2017-Dec-14 09:31N 35°04' E 139°38'815.5
2017-Dec-14 09:00N 35°09' E 139°44'713.1
2017-Dec-14 08:30N 35°16' E 139°46'612.8
2017-Dec-14 08:00N 35°21' E 139°42'713.4
2017-Dec-14 07:31N 35°27' E 139°46'713.7
2017-Dec-14 07:00N 35°33' E 139°51'611.4
2017-Dec-14 06:30N 35°37' E 139°46'0 0.1
2017-Dec-14 05:55N 35°37' E 139°46'0 0.0
2017-Dec-14 05:22N 35°37' E 139°46'0 0.0
2017-Dec-14 04:58N 35°37' E 139°46'0 0.0
2017-Dec-14 03:52N 35°37' E 139°46'0 0.0
2017-Dec-14 03:28N 35°37' E 139°46'0 0.0
2017-Dec-14 02:55N 35°37' E 139°46'0 0.0
2017-Dec-14 02:28N 35°37' E 139°46'0 0.1
2017-Dec-14 02:00N 35°37' E 139°46'0 0.1
2017-Dec-14 01:30N 35°37' E 139°46'0 0.0
2017-Dec-14 01:00N 35°37' E 139°46'0 0.0
2017-Dec-14 00:30N 35°37' E 139°46'0 0.0
2017-Dec-14 00:01N 35°37' E 139°46'0 0.0
2017-Dec-13 23:30N 35°37' E 139°46'0 0.0
2017-Dec-13 23:00N 35°37' E 139°46'0 1.0
2017-Dec-13 22:30N 35°36' E 139°46'4 7.1
2017-Dec-13 22:01N 35°34' E 139°49'510.3
2017-Dec-13 21:30N 35°29' E 139°52'713.4
2017-Dec-13 21:01N 35°26' E 139°45'3 5.8
2017-Dec-13 20:31N 35°28' E 139°42'0 0.0
2017-Dec-13 20:00N 35°28' E 139°42'0 0.0
2017-Dec-13 19:31N 35°28' E 139°42'0 0.0
2017-Dec-13 19:01N 35°28' E 139°42'0 0.0
2017-Dec-13 18:30N 35°28' E 139°42'0 0.0
2017-Dec-13 18:01N 35°28' E 139°42'0 0.0
2017-Dec-13 17:31N 35°28' E 139°42'0 0.0
2017-Dec-13 17:01N 35°28' E 139°42'0 0.0
2017-Dec-13 16:30N 35°28' E 139°42'0 0.0
2017-Dec-13 16:00N 35°28' E 139°42'0 0.0
2017-Dec-13 15:31N 35°28' E 139°42'0 0.0
2017-Dec-13 15:01N 35°28' E 139°42'0 0.0
2017-Dec-13 14:31N 35°28' E 139°42'0 0.0
2017-Dec-13 14:01N 35°28' E 139°42'0 0.0
2017-Dec-13 13:30N 35°28' E 139°42'0 0.0
2017-Dec-13 13:01N 35°28' E 139°42'0 0.0
2017-Dec-13 12:31N 35°28' E 139°42'0 0.0
2017-Dec-13 12:01N 35°28' E 139°42'0 0.0
2017-Dec-13 11:31N 35°28' E 139°42'0 0.5
2017-Dec-13 11:00N 35°28' E 139°42'3 5.8
2017-Dec-13 10:31N 35°26' E 139°45'5 9.2
2017-Dec-13 10:01N 35°29' E 139°50'4 7.2
2017-Dec-13 09:31N 35°29' E 139°45'0 0.0
2017-Dec-13 08:58N 35°29' E 139°45'0 0.0
2017-Dec-13 08:30N 35°29' E 139°45'0 0.1
2017-Dec-13 08:00N 35°29' E 139°45'0 0.1
2017-Dec-13 07:30N 35°29' E 139°45'0 0.0
2017-Dec-13 06:57N 35°29' E 139°45'0 0.0
2017-Dec-13 06:30N 35°29' E 139°45'0 0.0
2017-Dec-13 05:58N 35°29' E 139°45'0 0.0
2017-Dec-13 05:30N 35°29' E 139°45'0 0.0
2017-Dec-13 05:00N 35°29' E 139°45'0 0.0
2017-Dec-13 04:27N 35°29' E 139°45'0 0.0
2017-Dec-13 04:00N 35°29' E 139°45'0 0.0
2017-Dec-13 03:30N 35°29' E 139°45'0 0.0
2017-Dec-13 03:00N 35°29' E 139°45'0 0.0
2017-Dec-13 02:31N 35°29' E 139°45'0 0.0
2017-Dec-13 01:54N 35°29' E 139°45'0 0.0
2017-Dec-13 01:30N 35°29' E 139°45'0 0.0
2017-Dec-13 01:01N 35°29' E 139°45'0 0.0
2017-Dec-13 00:30N 35°29' E 139°45'0 0.0
2017-Dec-13 00:00N 35°29' E 139°45'0 0.0
2017-Dec-12 23:31N 35°29' E 139°45'0 0.0
2017-Dec-12 23:00N 35°29' E 139°45'1 1.1
2017-Dec-12 22:30N 35°29' E 139°45'3 6.8
2017-Dec-12 22:00N 35°26' E 139°46'4 9.0
2017-Dec-12 21:30N 35°21' E 139°45'4 8.5
2017-Dec-12 21:00N 35°17' E 139°45'4 7.3
2017-Dec-12 20:31N 35°14' E 139°47'4 8.3
2017-Dec-12 20:00N 35°10' E 139°46'4 8.1
2017-Dec-12 19:30N 35°07' E 139°43'5 9.9
2017-Dec-12 19:00N 35°03' E 139°38'713.6
2017-Dec-12 18:31N 34°59' E 139°32'3015.9
2017-Dec-12 16:39N 34°38' E 139°06'214.9
2017-Dec-12 16:30N 34°37' E 139°04'714.7
2017-Dec-12 16:01N 34°32' E 138°58'1615.6
2017-Dec-12 14:57N 34°24' E 138°40'816.3
2017-Dec-12 14:27N 34°21' E 138°31'816.1
2017-Dec-12 13:56N 34°17' E 138°22'815.5
2017-Dec-12 13:26N 34°14' E 138°13'  
2017-Dec-10 01:03N 31°05' E 122°31'114.4
2017-Dec-10 01:00N 31°05' E 122°30'510.0
2017-Dec-10 00:30N 31°06' E 122°24'713.7
2017-Dec-10 00:01N 31°07' E 122°16'714.8
2017-Dec-09 23:30N 31°12' E 122°09'714.7
2017-Dec-09 23:00N 31°14' E 122°01'714.4
2017-Dec-09 22:30N 31°16' E 121°53'612.6
2017-Dec-09 22:00N 31°18' E 121°46'30 2.8
2017-Dec-09 11:02N 31°06' E 122°19'  
Track history (hours):
 
Tides and Currents Weather Stations Pressure Air Temp Water Temp Dewpoint Dewpoint Depression Visibility Wind Speed Wind Dir Waves Ship Positions

Formosacontainer No4

Last reported at 2017-Dec-15 23:00 UTC. Time now 2017-Dec-15 23:28 UTC.
Position N 33°14' E 132°04'.

Length 138 m; draft 7.5 m.

Type: Ship (hazmat cat A). MMSI: 636013205.

Date/timePositionNaut miles runAvg speedWind from/ knotsBaromVisibWave heightAir tempDewpointWater temp
2017-Dec-15 23:00N 33°14' E 132°04'29314.1
2017-Dec-15 02:13N 34°16' E 137°49'1915.5
2017-Dec-15 01:00N 34°25' E 138°09'815.4
2017-Dec-15 00:28N 34°29' E 138°17'35 5.8
2017-Dec-14 18:31N 35°02' E 138°30'0 0.0
2017-Dec-14 18:00N 35°02' E 138°30'0 0.0
2017-Dec-14 17:30N 35°02' E 138°30'0 0.0
2017-Dec-14 17:00N 35°02' E 138°30'0 0.0
2017-Dec-14 16:30N 35°02' E 138°30'0 0.0
2017-Dec-14 16:01N 35°02' E 138°30'2 1.8
2017-Dec-14 15:01N 35°02' E 138°33'713.4
2017-Dec-14 14:30N 34°55' E 138°35'816.4
2017-Dec-14 14:00N 34°48' E 138°38'917.0
2017-Dec-14 13:30N 34°39' E 138°42'815.7
2017-Dec-14 13:00N 34°35' E 138°50'713.6
2017-Dec-14 12:30N 34°33' E 138°58'815.4
2017-Dec-14 12:00N 34°38' E 139°04'815.2
2017-Dec-14 11:29N 34°44' E 139°12'714.2
2017-Dec-14 11:00N 34°48' E 139°18'714.5
2017-Dec-14 10:30N 34°53' E 139°24'815.6
2017-Dec-14 10:00N 34°58' E 139°31'815.3
2017-Dec-14 09:31N 35°04' E 139°38'815.5
2017-Dec-14 09:00N 35°09' E 139°44'713.1
2017-Dec-14 08:30N 35°16' E 139°46'612.8
2017-Dec-14 08:00N 35°21' E 139°42'713.4
2017-Dec-14 07:31N 35°27' E 139°46'713.7
2017-Dec-14 07:00N 35°33' E 139°51'611.4
2017-Dec-14 06:30N 35°37' E 139°46'0 0.1
2017-Dec-14 05:55N 35°37' E 139°46'0 0.0
2017-Dec-14 05:22N 35°37' E 139°46'0 0.0
2017-Dec-14 04:58N 35°37' E 139°46'0 0.0
2017-Dec-14 03:52N 35°37' E 139°46'0 0.0
2017-Dec-14 03:28N 35°37' E 139°46'0 0.0
2017-Dec-14 02:55N 35°37' E 139°46'0 0.0
2017-Dec-14 02:28N 35°37' E 139°46'0 0.1
2017-Dec-14 02:00N 35°37' E 139°46'0 0.1
2017-Dec-14 01:30N 35°37' E 139°46'0 0.0
2017-Dec-14 01:00N 35°37' E 139°46'0 0.0
2017-Dec-14 00:30N 35°37' E 139°46'0 0.0
2017-Dec-14 00:01N 35°37' E 139°46'0 0.0
2017-Dec-13 23:30N 35°37' E 139°46'0 0.0
2017-Dec-13 23:00N 35°37' E 139°46'0 1.0
2017-Dec-13 22:30N 35°36' E 139°46'4 7.1
2017-Dec-13 22:01N 35°34' E 139°49'510.3
2017-Dec-13 21:30N 35°29' E 139°52'713.4
2017-Dec-13 21:01N 35°26' E 139°45'3 5.8
2017-Dec-13 20:31N 35°28' E 139°42'0 0.0
2017-Dec-13 20:00N 35°28' E 139°42'0 0.0
2017-Dec-13 19:31N 35°28' E 139°42'0 0.0
2017-Dec-13 19:01N 35°28' E 139°42'0 0.0
2017-Dec-13 18:30N 35°28' E 139°42'0 0.0
2017-Dec-13 18:01N 35°28' E 139°42'0 0.0
2017-Dec-13 17:31N 35°28' E 139°42'0 0.0
2017-Dec-13 17:01N 35°28' E 139°42'0 0.0
2017-Dec-13 16:30N 35°28' E 139°42'0 0.0
2017-Dec-13 16:00N 35°28' E 139°42'0 0.0
2017-Dec-13 15:31N 35°28' E 139°42'0 0.0
2017-Dec-13 15:01N 35°28' E 139°42'0 0.0
2017-Dec-13 14:31N 35°28' E 139°42'0 0.0
2017-Dec-13 14:01N 35°28' E 139°42'0 0.0
2017-Dec-13 13:30N 35°28' E 139°42'0 0.0
2017-Dec-13 13:01N 35°28' E 139°42'0 0.0
2017-Dec-13 12:31N 35°28' E 139°42'0 0.0
2017-Dec-13 12:01N 35°28' E 139°42'0 0.0
2017-Dec-13 11:31N 35°28' E 139°42'0 0.5
2017-Dec-13 11:00N 35°28' E 139°42'3 5.8
2017-Dec-13 10:31N 35°26' E 139°45'5 9.2
2017-Dec-13 10:01N 35°29' E 139°50'4 7.2
2017-Dec-13 09:31N 35°29' E 139°45'0 0.0
2017-Dec-13 08:58N 35°29' E 139°45'0 0.0
2017-Dec-13 08:30N 35°29' E 139°45'0 0.1
2017-Dec-13 08:00N 35°29' E 139°45'0 0.1
2017-Dec-13 07:30N 35°29' E 139°45'0 0.0
2017-Dec-13 06:57N 35°29' E 139°45'0 0.0
2017-Dec-13 06:30N 35°29' E 139°45'0 0.0
2017-Dec-13 05:58N 35°29' E 139°45'0 0.0
2017-Dec-13 05:30N 35°29' E 139°45'0 0.0
2017-Dec-13 05:00N 35°29' E 139°45'0 0.0
2017-Dec-13 04:27N 35°29' E 139°45'0 0.0
2017-Dec-13 04:00N 35°29' E 139°45'0 0.0
2017-Dec-13 03:30N 35°29' E 139°45'0 0.0
2017-Dec-13 03:00N 35°29' E 139°45'0 0.0
2017-Dec-13 02:31N 35°29' E 139°45'0 0.0
2017-Dec-13 01:54N 35°29' E 139°45'0 0.0
2017-Dec-13 01:30N 35°29' E 139°45'0 0.0
2017-Dec-13 01:01N 35°29' E 139°45'0 0.0
2017-Dec-13 00:30N 35°29' E 139°45'0 0.0
2017-Dec-13 00:00N 35°29' E 139°45'0 0.0
2017-Dec-12 23:31N 35°29' E 139°45'0 0.0
2017-Dec-12 23:00N 35°29' E 139°45'1 1.1
2017-Dec-12 22:30N 35°29' E 139°45'3 6.8
2017-Dec-12 22:00N 35°26' E 139°46'4 9.0
2017-Dec-12 21:30N 35°21' E 139°45'4 8.5
2017-Dec-12 21:00N 35°17' E 139°45'4 7.3
2017-Dec-12 20:31N 35°14' E 139°47'4 8.3
2017-Dec-12 20:00N 35°10' E 139°46'4 8.1
2017-Dec-12 19:30N 35°07' E 139°43'5 9.9
2017-Dec-12 19:00N 35°03' E 139°38'713.6
2017-Dec-12 18:31N 34°59' E 139°32'3015.9
2017-Dec-12 16:39N 34°38' E 139°06'214.9
2017-Dec-12 16:30N 34°37' E 139°04'714.7
2017-Dec-12 16:01N 34°32' E 138°58'1615.6
2017-Dec-12 14:57N 34°24' E 138°40'816.3
2017-Dec-12 14:27N 34°21' E 138°31'816.1
2017-Dec-12 13:56N 34°17' E 138°22'815.5
2017-Dec-12 13:26N 34°14' E 138°13'  
2017-Dec-10 01:03N 31°05' E 122°31'114.4
2017-Dec-10 01:00N 31°05' E 122°30'510.0
2017-Dec-10 00:30N 31°06' E 122°24'713.7
2017-Dec-10 00:01N 31°07' E 122°16'714.8
2017-Dec-09 23:30N 31°12' E 122°09'714.7
2017-Dec-09 23:00N 31°14' E 122°01'714.4
2017-Dec-09 22:30N 31°16' E 121°53'612.6
2017-Dec-09 22:00N 31°18' E 121°46'30 2.8
2017-Dec-09 11:02N 31°06' E 122°19'  

Dump ship's entire track history